This is the latest recevied weather packets stored in our database for station/object E27EKO-13. If no packets are shown the sender has not sent any weather packets the latest 10 day(s).
| Time | Temp. | Humidity | Pressure | Rain* | Wind** | Luminosity | Snow |
|---|---|---|---|---|---|---|---|
| 1777334534 | 39.44° C | 59% | 1008 hPa | - | - | 0 W/m² | - |
| 1777334212 | 38.33° C | 62% | 1008 hPa | - | - | 0 W/m² | - |
| 1777333890 | 37.22° C | 66% | 1008 hPa | - | - | 0 W/m² | - |
| 1777333568 | 36.67° C | 68% | 1008 hPa | - | - | 0 W/m² | - |
| 1777333246 | 35.56° C | 73% | 1008 hPa | - | - | 0 W/m² | - |
| 1777332924 | 34.44° C | 78% | 1008 hPa | - | - | 0 W/m² | - |
| 1777332602 | 33.33° C | 84% | 1008 hPa | - | - | 0 W/m² | - |
| 1777332280 | 32.22° C | 90% | 1008 hPa | - | - | 0 W/m² | - |
| 1777331958 | 31.67° C | 95% | 1008 hPa | - | - | 0 W/m² | - |
| 1777331636 | 31.11° C | 96% | 1007 hPa | - | - | 0 W/m² | - |
| 1777331314 | 31.11° C | 97% | 1007 hPa | - | - | 0 W/m² | - |
| 1777330992 | 31.11° C | 98% | 1007 hPa | - | - | 0 W/m² | - |
| 1777330670 | 31.11° C | 98% | 1007 hPa | - | - | 0 W/m² | - |
| 1777330348 | 30.56° C | 99% | 1007 hPa | - | - | 0 W/m² | - |
| 1777330026 | 30.56° C | 99% | 1007 hPa | - | - | 0 W/m² | - |
| 1777329704 | 30.56° C | 99% | 1007 hPa | - | - | 0 W/m² | - |
| 1777329382 | 30.56° C | 98% | 1007 hPa | - | - | 0 W/m² | - |
| 1777329060 | 31.11° C | 98% | 1007 hPa | - | - | 0 W/m² | - |
| 1777328738 | 31.11° C | 98% | 1007 hPa | - | - | 0 W/m² | - |
| 1777328416 | 31.11° C | 96% | 1007 hPa | - | - | 0 W/m² | - |
| 1777328094 | 31.11° C | 97% | 1007 hPa | - | - | 0 W/m² | - |
| 1777327772 | 31.11° C | 97% | 1007 hPa | - | - | 0 W/m² | - |
| 1777327450 | 31.11° C | 97% | 1007 hPa | - | - | 0 W/m² | - |
| 1777327128 | 31.11° C | 97% | 1007 hPa | - | - | 0 W/m² | - |
| 1777326806 | 31.11° C | 97% | 1006 hPa | - | - | 0 W/m² | - |
* Rain since midnight (hover to see other rain measurements)
** Current wind speed in m/s (hover to see current wind gust speed)